Air Navigation Services of Czech Republic
Airport: LKKB Updated:  23.05.2024 17:29:39  UTC
 METAR LKKB 23.05. 17:30 ...
METAR LKKB 231730Z 04006KT 360V070 CAVOK 21/09 Q1015 NOSIG RMK BLU BLU=
 TAF LKKB 23.05. 11:00 ...
TAF LKKB 231100Z 2312/2412 31008KT CAVOK      PROB30 TEMPO 2312/2316 8000 SHRA SCT030TCU      BECMG 2313/2315 04006KT      BECMG 2404/2406 BKN025      TEMPO 2406/2412 07010KT 7000 SHRA SCT017TCU BKN022      PROB40 TEMPO 2409/2412 5000 TSRA BKN017CB=